Time;durP1;ratioP1;P1;durP2;ratioP2;P2;SDS_P1;SDS_P2;PMS_P1;PMS_P2;Temp;Humidity;BMP_temperature;BMP_pressure;BME280_temperature;BME280_humidity;BME280_pressure;Samples;Min_cycle;Max_cycle;Signal;HPM_P1;HPM_P2
2022/11/05 00:10:33;;;;;;;4.25;2.97;;;;;;;;;;5059753;28;20235;-62
2022/11/05 00:18:31;;;;;;;4.43;3.00;;;;;;;;;;5080230;28;20254;-63
2022/11/05 00:20:59;;;;;;;4.03;2.67;;;;;;;;;;5079948;28;20323;-62
2022/11/05 00:26:28;;;;;;;4.50;2.65;;;;;;;;;;4978136;28;20726;-61
2022/11/05 00:28:57;;;;;;;3.20;2.45;;;;;;;;;;4979271;28;20602;-62
2022/11/05 00:31:25;;;;;;;2.90;2.38;;;;;;;;;;5024429;28;20258;-62
2022/11/05 00:33:53;;;;;;;3.20;2.13;;;;;;;;;;5079176;28;20200;-62
2022/11/05 00:36:20;;;;;;;2.95;2.30;;;;;;;;;;5079820;28;20636;-61
2022/11/05 00:38:50;;;;;;;3.53;2.47;;;;;;;;;;5079243;28;20285;-63
2022/11/05 00:41:18;;;;;;;3.53;2.20;;;;;;;;;;5079603;28;20204;-63
2022/11/05 00:46:30;;;;;;;2.70;2.28;;;;;;;;;;5028552;28;20254;-62
2022/11/05 00:51:43;;;;;;;2.42;2.20;;;;;;;;;;5079130;28;20811;-62
2022/11/05 00:54:12;;;;;;;2.47;2.10;;;;;;;;;;5079369;28;20289;-63
2022/11/05 00:56:40;;;;;;;2.30;2.00;;;;;;;;;;5079103;28;20253;-61
2022/11/05 00:59:08;;;;;;;3.13;2.50;;;;;;;;;;5079126;28;20261;-62
2022/11/05 01:01:35;;;;;;;2.42;2.20;;;;;;;;;;5079404;28;20307;-62
2022/11/05 01:04:03;;;;;;;3.35;2.20;;;;;;;;;;5078980;28;20200;-62
2022/11/05 01:06:31;;;;;;;2.58;1.98;;;;;;;;;;5078952;28;20228;-62
2022/11/05 01:08:59;;;;;;;2.72;2.00;;;;;;;;;;5079278;28;20211;-62
2022/11/05 01:11:35;;;;;;;2.53;1.80;;;;;;;;;;5078943;28;20204;-62
2022/11/05 01:14:04;;;;;;;2.55;2.00;;;;;;;;;;5078703;28;20200;-62
2022/11/05 01:16:32;;;;;;;2.20;1.83;;;;;;;;;;5078304;28;20318;-62
2022/11/05 01:19:00;;;;;;;2.35;1.80;;;;;;;;;;5078826;28;20222;-62
2022/11/05 01:21:28;;;;;;;1.98;1.73;;;;;;;;;;5078689;28;20247;-62
2022/11/05 01:23:55;;;;;;;1.92;1.73;;;;;;;;;;5078512;28;20201;-62
2022/11/05 01:26:23;;;;;;;1.90;1.67;;;;;;;;;;5078488;28;20250;-62
2022/11/05 01:28:53;;;;;;;2.08;1.88;;;;;;;;;;5078909;28;20247;-62
2022/11/05 01:31:21;;;;;;;2.22;1.95;;;;;;;;;;5078457;28;20212;-62
2022/11/05 01:33:49;;;;;;;2.15;1.92;;;;;;;;;;5078117;28;20197;-62
2022/11/05 01:36:17;;;;;;;2.22;1.77;;;;;;;;;;5078464;28;20513;-62
2022/11/05 01:38:45;;;;;;;1.80;1.70;;;;;;;;;;5078454;28;20212;-62
2022/11/05 01:41:12;;;;;;;2.38;1.83;;;;;;;;;;5078680;28;20266;-62
2022/11/05 01:43:47;;;;;;;1.60;1.50;;;;;;;;;;5078301;28;21687;-61
2022/11/05 01:46:18;;;;;;;1.50;1.40;;;;;;;;;;5078460;28;20286;-63
2022/11/05 01:48:47;;;;;;;1.80;1.45;;;;;;;;;;5078287;28;20645;-62
2022/11/05 01:51:18;;;;;;;1.65;1.52;;;;;;;;;;5078363;28;20557;-62
2022/11/05 01:53:46;;;;;;;1.92;1.67;;;;;;;;;;5077799;28;20597;-63
2022/11/05 01:56:15;;;;;;;1.70;1.50;;;;;;;;;;5078119;28;20940;-63
2022/11/05 01:58:45;;;;;;;1.33;1.23;;;;;;;;;;5078088;28;20346;-62
2022/11/05 02:01:13;;;;;;;1.42;1.30;;;;;;;;;;5078131;28;20212;-62
2022/11/05 02:03:43;;;;;;;1.80;1.50;;;;;;;;;;5077993;28;20205;-62
2022/11/05 02:06:11;;;;;;;1.63;1.50;;;;;;;;;;5077931;28;20299;-63
2022/11/05 02:08:46;;;;;;;2.28;1.38;;;;;;;;;;5078193;28;20214;-62
2022/11/05 02:11:16;;;;;;;1.80;1.60;;;;;;;;;;5078244;28;20204;-62
2022/11/05 02:13:43;;;;;;;1.40;1.30;;;;;;;;;;5077705;28;20215;-62
2022/11/05 02:16:15;;;;;;;1.90;1.50;;;;;;;;;;5077695;28;20289;-63
2022/11/05 02:18:49;;;;;;;1.60;1.50;;;;;;;;;;5077462;28;20254;-62
2022/11/05 02:21:35;;;;;;;1.73;1.60;;;;;;;;;;5076943;28;20620;-62
2022/11/05 02:24:29;;;;;;;1.40;1.30;;;;;;;;;;5077162;28;20574;-62
2022/11/05 02:27:09;;;;;;;1.75;1.35;;;;;;;;;;5019049;28;20208;-62
2022/11/05 02:30:00;;;;;;;1.60;1.30;;;;;;;;;;5078018;28;20203;-62
2022/11/05 02:32:36;;;;;;;1.60;1.30;;;;;;;;;;5053743;28;20205;-62
2022/11/05 02:35:08;;;;;;;1.55;1.20;;;;;;;;;;5076984;28;20214;-62
2022/11/05 02:37:39;;;;;;;1.20;1.10;;;;;;;;;;5077832;28;20606;-62
2022/11/05 02:40:11;;;;;;;1.48;1.35;;;;;;;;;;5077601;28;20210;-62
2022/11/05 02:42:43;;;;;;;1.23;1.13;;;;;;;;;;5077862;28;20554;-63
2022/11/05 02:45:16;;;;;;;1.20;1.10;;;;;;;;;;5077353;28;20208;-62
2022/11/05 02:47:48;;;;;;;1.40;1.30;;;;;;;;;;5077128;28;20208;-63
2022/11/05 02:50:20;;;;;;;1.50;1.20;;;;;;;;;;5077691;28;20244;-62
2022/11/05 02:52:52;;;;;;;1.30;1.20;;;;;;;;;;5077001;28;20200;-62
2022/11/05 02:55:23;;;;;;;1.40;1.30;;;;;;;;;;5077103;28;20205;-63
2022/11/05 02:57:51;;;;;;;1.33;1.23;;;;;;;;;;5077196;28;20204;-62
2022/11/05 03:00:40;;;;;;;1.25;1.10;;;;;;;;;;5077232;28;20277;-61
2022/11/05 03:03:13;;;;;;;1.30;1.10;;;;;;;;;;5077136;28;20199;-62
2022/11/05 03:05:44;;;;;;;1.08;1.00;;;;;;;;;;5077574;28;20208;-62
2022/11/05 03:08:17;;;;;;;1.50;1.30;;;;;;;;;;5077040;28;20594;-62
2022/11/05 03:10:48;;;;;;;1.48;1.38;;;;;;;;;;5077561;28;20216;-64
2022/11/05 03:13:19;;;;;;;1.38;1.27;;;;;;;;;;5076932;28;20478;-62
2022/11/05 03:15:54;;;;;;;1.25;1.15;;;;;;;;;;5077269;28;20216;-62
2022/11/05 03:18:26;;;;;;;1.08;0.98;;;;;;;;;;5077190;28;20641;-63
2022/11/05 03:21:00;;;;;;;1.30;1.20;;;;;;;;;;5086931;28;20246;-63
2022/11/05 03:23:30;;;;;;;1.50;1.40;;;;;;;;;;5097114;28;20200;-63
2022/11/05 03:26:01;;;;;;;1.17;1.08;;;;;;;;;;5097273;28;20202;-62
2022/11/05 03:28:30;;;;;;;1.70;1.20;;;;;;;;;;5097592;28;20211;-62
2022/11/05 03:30:58;;;;;;;1.30;1.20;;;;;;;;;;5097918;28;20204;-62
2022/11/05 03:33:29;;;;;;;1.33;1.23;;;;;;;;;;5096974;28;20199;-62
2022/11/05 03:35:59;;;;;;;1.25;1.15;;;;;;;;;;5097443;28;20487;-62
2022/11/05 03:38:28;;;;;;;1.30;1.20;;;;;;;;;;5099187;28;20233;-62
2022/11/05 03:40:58;;;;;;;1.70;1.15;;;;;;;;;;5101430;28;20203;-62
2022/11/05 03:43:29;;;;;;;1.83;1.20;;;;;;;;;;5100846;28;20279;-61
2022/11/05 03:45:58;;;;;;;1.20;1.10;;;;;;;;;;5100943;28;20203;-63
2022/11/05 03:48:28;;;;;;;1.40;1.30;;;;;;;;;;5101123;28;20204;-63
2022/11/05 03:51:01;;;;;;;1.10;1.00;;;;;;;;;;5100953;28;20204;-63
2022/11/05 03:53:30;;;;;;;1.20;1.10;;;;;;;;;;5100535;28;20200;-63
2022/11/05 03:56:01;;;;;;;1.13;1.02;;;;;;;;;;5100434;28;20210;-63
2022/11/05 03:58:30;;;;;;;1.45;1.25;;;;;;;;;;5100780;28;20214;-62
2022/11/05 04:01:00;;;;;;;1.20;1.10;;;;;;;;;;5101149;28;20580;-62
2022/11/05 04:03:34;;;;;;;1.05;1.00;;;;;;;;;;5100896;28;20567;-62
2022/11/05 04:14:18;;;;;;;1.30;1.20;;;;;;;;;;5100239;28;20302;-62
2022/11/05 04:25:02;;;;;;;1.20;1.10;;;;;;;;;;5079899;28;20187;-62
2022/11/05 04:27:30;;;;;;;1.20;1.10;;;;;;;;;;5079856;28;20548;-62
2022/11/05 04:32:43;;;;;;;2.45;1.20;;;;;;;;;;5079200;28;20203;-62
2022/11/05 04:35:12;;;;;;;2.10;1.25;;;;;;;;;;5080020;28;20270;-62
2022/11/05 04:37:40;;;;;;;1.10;1.00;;;;;;;;;;5079252;28;20318;-63
2022/11/05 04:40:08;;;;;;;1.17;0.98;;;;;;;;;;5080071;28;20299;-62
2022/11/05 04:42:36;;;;;;;2.60;1.10;;;;;;;;;;5078207;28;20197;-63
2022/11/05 04:45:04;;;;;;;0.95;0.90;;;;;;;;;;5079340;28;20250;-62
2022/11/05 04:47:32;;;;;;;1.73;1.00;;;;;;;;;;5079470;28;20204;-63
2022/11/05 04:50:00;;;;;;;1.15;1.08;;;;;;;;;;5077914;28;20521;-62
2022/11/05 04:52:29;;;;;;;1.17;1.08;;;;;;;;;;5079738;28;20703;-63
2022/11/05 04:54:57;;;;;;;1.23;1.13;;;;;;;;;;5079545;28;20226;-63
2022/11/05 04:57:25;;;;;;;1.00;1.00;;;;;;;;;;5078871;28;20868;-63
2022/11/05 04:59:53;;;;;;;1.40;1.30;;;;;;;;;;5078793;28;20298;-63
2022/11/05 05:02:21;;;;;;;1.10;1.00;;;;;;;;;;5077858;28;20705;-62
2022/11/05 05:04:48;;;;;;;1.20;1.10;;;;;;;;;;5079162;28;20219;-62
2022/11/05 05:07:16;;;;;;;1.13;1.02;;;;;;;;;;5079489;28;20665;-62
2022/11/05 05:09:44;;;;;;;1.30;1.20;;;;;;;;;;5078905;28;20209;-62
2022/11/05 05:12:12;;;;;;;1.17;1.08;;;;;;;;;;5078784;28;20204;-63
2022/11/05 05:14:39;;;;;;;1.20;1.10;;;;;;;;;;5078741;28;20204;-62
2022/11/05 05:17:06;;;;;;;1.20;1.10;;;;;;;;;;5078887;28;20644;-62
2022/11/05 05:21:37;;;;;;;0.88;0.88;;;;;;;;;;5079285;28;20211;-63
2022/11/05 05:22:20;;;;;;;1.20;1.10;;;;;;;;;;5078005;28;20207;-62
2022/11/05 05:24:49;;;;;;;1.40;1.00;;;;;;;;;;5078917;28;20200;-62
2022/11/05 05:27:16;;;;;;;2.17;1.10;;;;;;;;;;5078526;28;20227;-64
2022/11/05 05:29:44;;;;;;;1.30;1.20;;;;;;;;;;5078738;28;20200;-62
2022/11/05 05:32:11;;;;;;;1.17;1.05;;;;;;;;;;5078761;28;20589;-62
2022/11/05 05:34:38;;;;;;;1.27;1.17;;;;;;;;;;5077601;28;20294;-62
2022/11/05 05:37:08;;;;;;;1.10;0.90;;;;;;;;;;5057810;28;20251;-62
2022/11/05 05:39:37;;;;;;;1.10;0.98;;;;;;;;;;5059515;28;20223;-62
2022/11/05 05:42:06;;;;;;;1.10;1.00;;;;;;;;;;5072513;28;20291;-62
2022/11/05 05:44:34;;;;;;;1.02;1.00;;;;;;;;;;5078548;28;20208;-63
2022/11/05 05:47:01;;;;;;;1.20;1.10;;;;;;;;;;5078588;28;20227;-63
2022/11/05 05:49:28;;;;;;;0.85;0.85;;;;;;;;;;5078237;28;20208;-63
2022/11/05 05:51:56;;;;;;;1.00;0.90;;;;;;;;;;5078203;28;20204;-61
2022/11/05 05:54:24;;;;;;;0.93;0.90;;;;;;;;;;5077877;28;20590;-62
2022/11/05 05:56:51;;;;;;;1.20;1.10;;;;;;;;;;5077991;28;20232;-63
2022/11/05 05:59:20;;;;;;;1.20;1.10;;;;;;;;;;5077735;28;20219;-62
2022/11/05 06:01:47;;;;;;;1.08;1.00;;;;;;;;;;5078017;28;20223;-62
2022/11/05 06:04:15;;;;;;;0.80;0.80;;;;;;;;;;5078213;28;20515;-62
2022/11/05 06:06:45;;;;;;;1.30;1.20;;;;;;;;;;5077899;28;20203;-63
2022/11/05 06:09:13;;;;;;;1.10;1.00;;;;;;;;;;5077669;28;20204;-63
2022/11/05 06:11:40;;;;;;;1.48;1.02;;;;;;;;;;5077171;28;20203;-63
2022/11/05 06:14:10;;;;;;;1.20;1.10;;;;;;;;;;5078193;28;20212;-61
2022/11/05 06:16:38;;;;;;;0.98;0.93;;;;;;;;;;5078187;28;20224;-62
2022/11/05 06:19:06;;;;;;;1.10;1.10;;;;;;;;;;5077903;28;20204;-62
2022/11/05 06:21:34;;;;;;;1.33;1.10;;;;;;;;;;5092529;28;20231;-62
2022/11/05 06:24:02;;;;;;;1.27;1.17;;;;;;;;;;5097646;28;20210;-63
2022/11/05 06:26:29;;;;;;;0.90;0.90;;;;;;;;;;5097860;28;20627;-62
2022/11/05 06:28:57;;;;;;;0.95;0.95;;;;;;;;;;5098175;28;20203;-62
2022/11/05 06:31:25;;;;;;;1.10;1.00;;;;;;;;;;5079567;28;20200;-61
2022/11/05 06:33:53;;;;;;;1.05;1.05;;;;;;;;;;5077364;28;20201;-61
2022/11/05 06:36:21;;;;;;;1.25;1.15;;;;;;;;;;5077831;28;20211;-62
2022/11/05 06:38:48;;;;;;;1.10;1.00;;;;;;;;;;5077434;28;20286;-63
2022/11/05 06:41:16;;;;;;;0.90;0.90;;;;;;;;;;5092837;28;20210;-62
2022/11/05 06:43:43;;;;;;;1.00;1.00;;;;;;;;;;5097731;28;20204;-63
2022/11/05 06:46:10;;;;;;;1.20;1.10;;;;;;;;;;5097989;28;20559;-62
2022/11/05 06:48:38;;;;;;;1.20;1.10;;;;;;;;;;5097210;28;20210;-62
2022/11/05 06:51:07;;;;;;;1.20;1.10;;;;;;;;;;5097511;28;20237;-62
2022/11/05 06:53:35;;;;;;;1.30;1.20;;;;;;;;;;5097476;28;20603;-62
2022/11/05 06:56:03;;;;;;;1.30;1.20;;;;;;;;;;5096524;28;20584;-62
2022/11/05 06:58:30;;;;;;;1.10;1.02;;;;;;;;;;5077613;28;20238;-62
2022/11/05 07:01:01;;;;;;;1.10;1.00;;;;;;;;;;5077096;28;20214;-62
2022/11/05 07:03:29;;;;;;;1.00;1.00;;;;;;;;;;5076996;28;20679;-62
2022/11/05 07:05:57;;;;;;;0.90;0.90;;;;;;;;;;5075805;28;20204;-62
2022/11/05 07:08:26;;;;;;;1.13;1.02;;;;;;;;;;5056727;28;20207;-62
2022/11/05 07:10:55;;;;;;;1.25;1.15;;;;;;;;;;5056421;28;20205;-62
2022/11/05 07:13:22;;;;;;;1.02;0.93;;;;;;;;;;5058620;28;20205;-63
2022/11/05 07:15:50;;;;;;;1.17;1.08;;;;;;;;;;5060892;28;20218;-62
2022/11/05 07:18:17;;;;;;;1.20;1.10;;;;;;;;;;5080244;28;20505;-63
2022/11/05 07:20:45;;;;;;;1.10;1.00;;;;;;;;;;5080600;28;20231;-63
2022/11/05 07:23:13;;;;;;;1.45;1.13;;;;;;;;;;5080753;28;20208;-63
2022/11/05 07:25:43;;;;;;;1.27;1.17;;;;;;;;;;5080709;28;20204;-62
2022/11/05 07:28:10;;;;;;;1.20;1.10;;;;;;;;;;5070410;28;20295;-62
2022/11/05 07:30:37;;;;;;;1.55;1.00;;;;;;;;;;5078099;28;20512;-62
2022/11/05 07:33:05;;;;;;;1.05;0.95;;;;;;;;;;5081005;28;20213;-63
2022/11/05 07:35:32;;;;;;;1.33;1.23;;;;;;;;;;5080376;28;20211;-62
2022/11/05 07:38:00;;;;;;;1.00;0.90;;;;;;;;;;5079618;28;20220;-63
2022/11/05 07:40:28;;;;;;;1.17;1.08;;;;;;;;;;5080107;28;20204;-63
2022/11/05 07:42:58;;;;;;;1.10;1.00;;;;;;;;;;5080151;28;20204;-62
2022/11/05 07:45:26;;;;;;;1.30;1.20;;;;;;;;;;5080026;28;20205;-63
2022/11/05 07:47:54;;;;;;;2.25;1.13;;;;;;;;;;5080012;28;20197;-62
2022/11/05 07:50:22;;;;;;;1.40;1.30;;;;;;;;;;5079361;28;20200;-62
2022/11/05 07:52:50;;;;;;;2.00;1.40;;;;;;;;;;5079068;28;20623;-62
2022/11/05 07:55:18;;;;;;;1.95;1.42;;;;;;;;;;5079339;28;20204;-62
2022/11/05 07:57:46;;;;;;;1.13;1.02;;;;;;;;;;5079016;28;20247;-62
2022/11/05 08:00:16;;;;;;;2.28;1.30;;;;;;;;;;5079148;28;20216;-62
2022/11/05 08:02:44;;;;;;;1.40;1.30;;;;;;;;;;5078970;28;20204;-62
2022/11/05 08:05:11;;;;;;;1.33;1.23;;;;;;;;;;5079789;28;20204;-62
2022/11/05 08:07:38;;;;;;;1.83;1.10;;;;;;;;;;5078129;28;20304;-62
2022/11/05 08:10:06;;;;;;;1.25;1.15;;;;;;;;;;5099466;28;20204;-62
2022/11/05 08:12:34;;;;;;;1.40;1.30;;;;;;;;;;5100549;28;20218;-62
2022/11/05 08:15:01;;;;;;;1.35;1.25;;;;;;;;;;5099535;28;20230;-62
2022/11/05 08:17:30;;;;;;;1.45;1.20;;;;;;;;;;5087635;28;20238;-62
2022/11/05 08:19:57;;;;;;;1.98;1.30;;;;;;;;;;5079076;28;20232;-62
2022/11/05 08:22:25;;;;;;;1.30;1.20;;;;;;;;;;5099582;28;20520;-62
2022/11/05 08:24:52;;;;;;;1.27;1.17;;;;;;;;;;5097834;28;20196;-62
2022/11/05 08:27:20;;;;;;;1.33;1.23;;;;;;;;;;5099006;28;20203;-62
2022/11/05 08:29:47;;;;;;;1.40;1.25;;;;;;;;;;5099160;28;20206;-63
2022/11/05 08:32:15;;;;;;;1.40;1.30;;;;;;;;;;5099014;28;20302;-62
2022/11/05 08:34:44;;;;;;;1.33;1.23;;;;;;;;;;5099325;28;20701;-63
2022/11/05 08:37:11;;;;;;;1.48;1.38;;;;;;;;;;5099097;28;20200;-63
2022/11/05 08:39:39;;;;;;;1.77;1.40;;;;;;;;;;5098841;28;20654;-62
2022/11/05 08:42:06;;;;;;;1.33;1.17;;;;;;;;;;5099055;28;20214;-62
2022/11/05 08:44:33;;;;;;;1.40;1.30;;;;;;;;;;5099483;28;20531;-62
2022/11/05 08:47:01;;;;;;;1.40;1.30;;;;;;;;;;5098774;28;20265;-62
2022/11/05 08:49:29;;;;;;;1.65;1.55;;;;;;;;;;5098445;28;20200;-62
2022/11/05 08:51:58;;;;;;;1.48;1.38;;;;;;;;;;5098541;28;20200;-63
2022/11/05 08:54:25;;;;;;;1.23;1.13;;;;;;;;;;5098048;28;20214;-62
2022/11/05 08:56:52;;;;;;;1.20;1.10;;;;;;;;;;5097977;28;20200;-62
2022/11/05 08:59:20;;;;;;;1.40;1.30;;;;;;;;;;5097775;28;20229;-62
2022/11/05 09:01:49;;;;;;;1.27;1.17;;;;;;;;;;5097479;28;20237;-62
2022/11/05 09:04:16;;;;;;;1.20;1.10;;;;;;;;;;5097891;28;20268;-62
2022/11/05 09:06:43;;;;;;;1.15;1.13;;;;;;;;;;5098006;28;20199;-62
2022/11/05 09:09:12;;;;;;;1.42;1.33;;;;;;;;;;5097942;28;20294;-62
2022/11/05 09:11:39;;;;;;;1.40;1.30;;;;;;;;;;5097895;28;20574;-63
2022/11/05 09:14:07;;;;;;;1.40;1.30;;;;;;;;;;5098325;28;20215;-63
2022/11/05 09:16:35;;;;;;;1.42;1.33;;;;;;;;;;5097967;28;20211;-64
2022/11/05 09:19:03;;;;;;;1.40;1.30;;;;;;;;;;5097801;28;20223;-62
2022/11/05 09:21:30;;;;;;;1.25;1.15;;;;;;;;;;5097594;28;20512;-62
2022/11/05 09:23:57;;;;;;;1.40;1.30;;;;;;;;;;5097674;28;20207;-62
2022/11/05 09:26:26;;;;;;;1.30;1.20;;;;;;;;;;5097351;28;20204;-63
2022/11/05 09:28:54;;;;;;;1.40;1.30;;;;;;;;;;5097714;28;20199;-63
2022/11/05 09:31:21;;;;;;;1.35;1.25;;;;;;;;;;5097480;28;20204;-62
2022/11/05 09:33:49;;;;;;;1.35;1.25;;;;;;;;;;5096787;28;20268;-62
2022/11/05 09:36:16;;;;;;;1.60;1.30;;;;;;;;;;5096309;28;20619;-62
2022/11/05 09:38:43;;;;;;;1.45;1.35;;;;;;;;;;5096891;28;20241;-62
2022/11/05 09:41:15;;;;;;;2.35;1.15;;;;;;;;;;5097246;28;20624;-62
2022/11/05 09:43:46;;;;;;;1.58;1.20;;;;;;;;;;5097051;28;20203;-63
2022/11/05 09:46:17;;;;;;;1.30;1.20;;;;;;;;;;5097301;28;20725;-62
2022/11/05 09:48:46;;;;;;;1.30;1.20;;;;;;;;;;5096246;28;20207;-62
2022/11/05 09:51:15;;;;;;;3.05;1.50;;;;;;;;;;5097252;28;20196;-62
2022/11/05 09:53:43;;;;;;;1.30;1.20;;;;;;;;;;5096474;28;20212;-63
2022/11/05 09:56:18;;;;;;;1.58;1.30;;;;;;;;;;5096719;28;20200;-62
2022/11/05 09:58:48;;;;;;;1.63;1.27;;;;;;;;;;5096449;28;20218;-63
2022/11/05 10:01:18;;;;;;;1.92;1.30;;;;;;;;;;5096904;28;20531;-62
2022/11/05 10:03:47;;;;;;;1.30;1.20;;;;;;;;;;5096620;28;20211;-62
2022/11/05 10:06:18;;;;;;;2.47;1.27;;;;;;;;;;5096391;28;20314;-63
2022/11/05 10:08:48;;;;;;;1.48;1.20;;;;;;;;;;5095639;28;20196;-63
2022/11/05 10:11:17;;;;;;;1.30;1.15;;;;;;;;;;5096323;28;20195;-62
2022/11/05 10:13:46;;;;;;;1.13;1.10;;;;;;;;;;5096689;28;20229;-63
2022/11/05 10:16:20;;;;;;;1.33;1.20;;;;;;;;;;5096634;28;20208;-62
2022/11/05 10:18:49;;;;;;;1.52;1.30;;;;;;;;;;5095217;28;20218;-63
2022/11/05 10:21:17;;;;;;;0.98;0.98;;;;;;;;;;5095884;28;20236;-63
2022/11/05 10:23:45;;;;;;;1.30;1.20;;;;;;;;;;5096204;28;20230;-63
2022/11/05 10:26:14;;;;;;;1.55;1.02;;;;;;;;;;5096666;28;20204;-62
2022/11/05 10:28:42;;;;;;;1.20;1.10;;;;;;;;;;5095857;28;20187;-63
2022/11/05 10:31:11;;;;;;;1.20;1.08;;;;;;;;;;5096035;28;20205;-64
2022/11/05 10:33:42;;;;;;;1.88;1.10;;;;;;;;;;5096193;28;20210;-63
2022/11/05 10:36:12;;;;;;;1.88;1.30;;;;;;;;;;5096339;28;20484;-62
2022/11/05 10:38:39;;;;;;;1.40;1.10;;;;;;;;;;5095602;28;20220;-62
2022/11/05 10:41:15;;;;;;;1.55;1.20;;;;;;;;;;5096119;28;20203;-63
2022/11/05 10:43:45;;;;;;;1.10;1.05;;;;;;;;;;5096894;28;20195;-63
2022/11/05 10:46:20;;;;;;;1.20;1.10;;;;;;;;;;5095671;28;20202;-63
2022/11/05 10:48:56;;;;;;;1.25;1.15;;;;;;;;;;5093845;28;20195;-63
2022/11/05 10:51:24;;;;;;;1.48;1.13;;;;;;;;;;5095483;28;20208;-62
2022/11/05 10:53:53;;;;;;;1.40;1.27;;;;;;;;;;5096220;28;20541;-62
2022/11/05 10:56:31;;;;;;;2.20;1.20;;;;;;;;;;5095380;28;20211;-63
2022/11/05 10:59:01;;;;;;;1.38;1.10;;;;;;;;;;5094762;28;20219;-63
2022/11/05 11:01:29;;;;;;;2.90;1.50;;;;;;;;;;5095349;28;20200;-62
2022/11/05 11:04:07;;;;;;;2.35;1.10;;;;;;;;;;5095348;28;20204;-62
2022/11/05 11:06:38;;;;;;;1.45;1.20;;;;;;;;;;5095654;28;20329;-62
2022/11/05 11:09:07;;;;;;;1.52;1.20;;;;;;;;;;5094390;28;20195;-64
2022/11/05 11:11:36;;;;;;;1.42;1.13;;;;;;;;;;5095408;28;20570;-63
2022/11/05 11:14:05;;;;;;;1.85;1.10;;;;;;;;;;5095031;28;20231;-63
2022/11/05 11:16:37;;;;;;;2.38;1.08;;;;;;;;;;5095850;28;20208;-62
2022/11/05 11:19:21;;;;;;;1.85;1.30;;;;;;;;;;5095174;28;20226;-62
2022/11/05 11:22:10;;;;;;;2.40;1.30;;;;;;;;;;5095346;28;20878;-63
2022/11/05 11:24:38;;;;;;;2.17;1.40;;;;;;;;;;5095109;28;20268;-63
2022/11/05 11:27:07;;;;;;;1.92;1.10;;;;;;;;;;5095004;28;20192;-62
2022/11/05 11:29:38;;;;;;;1.25;1.10;;;;;;;;;;5095219;28;20192;-63
2022/11/05 11:32:12;;;;;;;1.20;1.10;;;;;;;;;;5094572;28;20216;-63
2022/11/05 11:34:41;;;;;;;1.30;1.17;;;;;;;;;;5094394;28;20213;-63
2022/11/05 11:37:10;;;;;;;1.38;1.25;;;;;;;;;;5094746;28;20337;-63
2022/11/05 11:39:38;;;;;;;1.75;1.20;;;;;;;;;;5095032;28;20238;-63
2022/11/05 11:42:07;;;;;;;3.55;1.40;;;;;;;;;;5095470;28;20203;-62
2022/11/05 11:44:35;;;;;;;1.35;1.25;;;;;;;;;;5094962;28;20211;-62
2022/11/05 11:47:04;;;;;;;1.30;1.15;;;;;;;;;;5094690;28;20208;-63
2022/11/05 11:49:33;;;;;;;1.38;1.20;;;;;;;;;;5094688;28;20592;-62
2022/11/05 11:52:04;;;;;;;2.53;1.40;;;;;;;;;;5094146;28;20488;-62
2022/11/05 11:54:33;;;;;;;4.05;1.30;;;;;;;;;;5095277;28;20214;-63
2022/11/05 11:57:01;;;;;;;2.20;1.20;;;;;;;;;;5093425;28;20203;-64
2022/11/05 11:59:29;;;;;;;1.88;1.30;;;;;;;;;;5096282;28;20238;-62
2022/11/05 12:02:20;;;;;;;1.92;1.50;;;;;;;;;;5098197;28;20207;-63
2022/11/05 12:05:06;;;;;;;2.20;1.30;;;;;;;;;;5098045;28;20206;-63
2022/11/05 12:07:43;;;;;;;2.25;1.58;;;;;;;;;;5099049;28;20195;-63
2022/11/05 12:10:17;;;;;;;1.92;1.20;;;;;;;;;;5098639;28;20199;-62
2022/11/05 12:12:48;;;;;;;1.52;1.00;;;;;;;;;;5098074;28;20209;-62
2022/11/05 12:15:25;;;;;;;1.90;1.40;;;;;;;;;;5098272;28;20483;-63
2022/11/05 12:17:55;;;;;;;1.58;1.30;;;;;;;;;;5097765;28;20206;-62
2022/11/05 12:20:28;;;;;;;1.33;1.23;;;;;;;;;;5097550;28;20619;-63
2022/11/05 12:23:14;;;;;;;2.67;1.33;;;;;;;;;;5098134;28;20199;-63
2022/11/05 12:25:45;;;;;;;3.10;1.38;;;;;;;;;;5097927;28;20458;-63
2022/11/05 12:28:22;;;;;;;1.25;1.00;;;;;;;;;;5087167;28;20201;-62
2022/11/05 12:30:53;;;;;;;2.25;1.30;;;;;;;;;;5077132;28;20204;-62
2022/11/05 12:33:27;;;;;;;1.92;1.33;;;;;;;;;;5077013;28;20211;-63
2022/11/05 12:36:07;;;;;;;1.40;1.13;;;;;;;;;;5077156;28;20658;-63
2022/11/05 12:38:57;;;;;;;2.13;1.30;;;;;;;;;;5089977;28;20199;-63
2022/11/05 12:41:27;;;;;;;1.75;1.17;;;;;;;;;;5097665;28;20601;-63
2022/11/05 12:44:07;;;;;;;2.22;1.27;;;;;;;;;;5098029;28;20308;-62
2022/11/05 12:46:37;;;;;;;1.40;1.30;;;;;;;;;;5097375;28;20585;-63
2022/11/05 12:49:19;;;;;;;1.48;1.23;;;;;;;;;;5079427;28;20582;-63
2022/11/05 12:51:54;;;;;;;2.00;1.23;;;;;;;;;;5060972;28;20204;-61
2022/11/05 12:54:25;;;;;;;1.35;1.20;;;;;;;;;;5076271;28;20200;-62
2022/11/05 12:56:56;;;;;;;2.08;1.23;;;;;;;;;;5076663;28;20208;-62
2022/11/05 12:59:28;;;;;;;1.52;1.38;;;;;;;;;;5096170;28;20219;-64
2022/11/05 13:01:57;;;;;;;1.83;1.33;;;;;;;;;;5095899;28;20218;-62
2022/11/05 13:04:31;;;;;;;1.77;1.27;;;;;;;;;;5096744;28;20195;-62
2022/11/05 13:07:00;;;;;;;1.65;1.38;;;;;;;;;;5096088;28;20603;-62
2022/11/05 13:09:31;;;;;;;1.55;1.45;;;;;;;;;;5056198;28;20193;-63
2022/11/05 13:12:04;;;;;;;1.20;1.10;;;;;;;;;;5055770;28;20267;-62
2022/11/05 13:14:36;;;;;;;1.38;1.27;;;;;;;;;;5057047;28;20197;-63
2022/11/05 13:17:06;;;;;;;1.58;1.30;;;;;;;;;;5058288;28;20213;-62
2022/11/05 13:19:36;;;;;;;1.80;1.33;;;;;;;;;;5076426;28;20239;-62
2022/11/05 13:22:08;;;;;;;1.90;1.40;;;;;;;;;;5076300;28;20232;-62
2022/11/05 13:24:38;;;;;;;1.52;1.30;;;;;;;;;;5075197;28;20243;-63
2022/11/05 13:27:16;;;;;;;1.30;1.20;;;;;;;;;;5076601;28;20205;-62
2022/11/05 13:29:48;;;;;;;1.48;1.23;;;;;;;;;;5076308;28;20204;-62
2022/11/05 13:32:26;;;;;;;1.58;1.20;;;;;;;;;;5076213;28;20207;-62
2022/11/05 13:34:55;;;;;;;1.88;1.17;;;;;;;;;;5075594;28;20212;-63
2022/11/05 13:40:11;;;;;;;1.55;1.10;;;;;;;;;;5055348;28;20228;-62
2022/11/05 13:42:49;;;;;;;1.10;1.00;;;;;;;;;;5055823;28;20207;-62
2022/11/05 13:45:31;;;;;;;1.20;1.10;;;;;;;;;;5059118;28;20197;-63
2022/11/05 13:48:26;;;;;;;1.38;1.25;;;;;;;;;;5059459;28;20490;-63
2022/11/05 13:51:01;;;;;;;1.67;1.17;;;;;;;;;;5075758;28;20196;-63
2022/11/05 13:53:39;;;;;;;1.88;1.30;;;;;;;;;;5074595;28;20236;-63
2022/11/05 13:56:14;;;;;;;1.55;1.10;;;;;;;;;;5074032;28;20632;-63
2022/11/05 13:58:52;;;;;;;1.00;1.00;;;;;;;;;;5075489;28;20732;-62
2022/11/05 14:01:25;;;;;;;1.15;1.05;;;;;;;;;;5075082;28;20204;-63
2022/11/05 14:03:53;;;;;;;2.00;1.30;;;;;;;;;;5076228;28;20608;-62
2022/11/05 14:06:24;;;;;;;1.73;1.33;;;;;;;;;;5075638;28;20201;-62
2022/11/05 14:08:51;;;;;;;1.20;1.10;;;;;;;;;;5075337;28;20230;-62
2022/11/05 14:11:21;;;;;;;1.10;1.00;;;;;;;;;;5074495;28;20473;-62
2022/11/05 14:13:51;;;;;;;1.35;1.00;;;;;;;;;;5075023;28;20216;-62
2022/11/05 14:16:19;;;;;;;2.20;1.40;;;;;;;;;;5074931;28;20206;-63
2022/11/05 14:18:48;;;;;;;1.30;1.20;;;;;;;;;;5074348;28;20201;-62
2022/11/05 14:21:47;;;;;;;1.20;1.10;;;;;;;;;;5084419;28;20322;-62
2022/11/05 14:24:26;;;;;;;1.63;1.00;;;;;;;;;;5094423;28;20204;-61
2022/11/05 14:27:27;;;;;;;1.17;1.02;;;;;;;;;;5093460;28;20201;-62
2022/11/05 14:29:56;;;;;;;1.20;1.10;;;;;;;;;;4992283;28;20206;-62
2022/11/05 14:32:27;;;;;;;1.17;1.02;;;;;;;;;;4992745;28;20210;-63
2022/11/05 14:35:03;;;;;;;1.10;1.00;;;;;;;;;;5042451;28;20204;-62
2022/11/05 14:37:31;;;;;;;1.15;1.05;;;;;;;;;;5078533;28;20202;-62
2022/11/05 14:40:03;;;;;;;1.48;1.10;;;;;;;;;;5094104;28;20821;-62
2022/11/05 14:42:31;;;;;;;0.85;0.85;;;;;;;;;;5094963;28;20287;-63
2022/11/05 14:45:03;;;;;;;1.20;1.00;;;;;;;;;;5093780;28;20604;-62
2022/11/05 14:47:33;;;;;;;1.08;0.98;;;;;;;;;;5093765;28;20275;-62
2022/11/05 14:50:02;;;;;;;1.08;1.00;;;;;;;;;;5094793;28;20503;-62
2022/11/05 14:52:30;;;;;;;1.30;1.10;;;;;;;;;;5094675;28;20199;-62
2022/11/05 14:54:58;;;;;;;1.67;1.17;;;;;;;;;;5095024;28;20206;-62
2022/11/05 14:57:45;;;;;;;1.33;1.10;;;;;;;;;;5093490;28;20211;-63
2022/11/05 15:00:28;;;;;;;1.10;1.00;;;;;;;;;;5093337;28;20238;-62
2022/11/05 15:03:00;;;;;;;1.10;1.00;;;;;;;;;;5094756;28;20290;-63
2022/11/05 15:05:38;;;;;;;1.20;1.10;;;;;;;;;;5093556;28;20206;-62
2022/11/05 15:08:24;;;;;;;1.20;1.10;;;;;;;;;;5093269;28;20206;-63
2022/11/05 15:10:51;;;;;;;1.05;0.95;;;;;;;;;;5095565;28;20203;-62
2022/11/05 15:13:26;;;;;;;1.10;1.00;;;;;;;;;;5095471;28;20576;-64
2022/11/05 15:15:53;;;;;;;1.05;1.00;;;;;;;;;;5095009;28;20206;-62
2022/11/05 15:18:28;;;;;;;1.27;1.00;;;;;;;;;;5093746;28;20204;-62
2022/11/05 15:20:56;;;;;;;1.05;0.95;;;;;;;;;;5093848;28;20234;-62
2022/11/05 15:23:24;;;;;;;1.15;0.90;;;;;;;;;;5093471;28;20200;-63
2022/11/05 15:25:57;;;;;;;0.90;0.90;;;;;;;;;;5087978;28;20625;-63
2022/11/05 15:28:29;;;;;;;0.93;0.82;;;;;;;;;;5074498;28;20219;-64
2022/11/05 15:30:57;;;;;;;1.02;0.90;;;;;;;;;;5074295;28;20638;-63
2022/11/05 15:33:26;;;;;;;0.77;0.77;;;;;;;;;;5074102;28;20200;-62
2022/11/05 15:35:53;;;;;;;0.90;0.90;;;;;;;;;;5083542;28;20200;-63
2022/11/05 15:38:29;;;;;;;1.13;1.00;;;;;;;;;;5097472;28;20202;-63
2022/11/05 15:41:01;;;;;;;1.10;0.98;;;;;;;;;;5097681;28;20227;-62
2022/11/05 15:43:30;;;;;;;1.00;0.90;;;;;;;;;;5098335;28;20269;-63
2022/11/05 15:46:08;;;;;;;1.00;0.90;;;;;;;;;;5090987;28;20208;-62
2022/11/05 15:48:37;;;;;;;0.95;0.90;;;;;;;;;;5077515;28;20200;-63